YAMB weather

RAAF Base Amberley
Queensland, Australia

Public forecast

Using degrees Celsius for public forecast. Weather courtesy of forecast.io.

METAR (pilot weather report)

Retrieved 2019/02/22 04:30 UTC (1 hour ago):

YAMB 220430Z 18021G34KT 9999 FEW045 SCT061 31/15 Q1008 FM0430 MOD TURB BLW 5000FT RMK USE TAF FOR ARRIVALS AFTER 0500Z

TAF (pilot weather forecast)

Forecast is more than 12 hours old.

Retrieved 2019/02/21 00:00 UTC (1 day ago):

TAF YAMB 212330Z 2200/2218 16018G28KT 9999 -SHRA SCT035 BKN045 FM220400 15022G35KT 9999 SCT045 FM220900 16015KT 9999 SCT035 FM221400 17013KT 9999 -DZ BKN030